createdAt,value
2023-02-21T00:00:17.720Z,101191.72
2023-02-21T00:03:05.040Z,101199.28
2023-02-21T00:05:50.501Z,101183.25
2023-02-21T00:08:35.911Z,101175.38
2023-02-21T00:11:23.830Z,101179.69
2023-02-21T00:14:09.417Z,101172.50
2023-02-21T00:16:55.332Z,101172.50
2023-02-21T00:19:41.116Z,101181.63
2023-02-21T00:22:26.498Z,101156.13
2023-02-21T00:25:12.069Z,101179.63
2023-02-21T00:27:57.617Z,101174.31
2023-02-21T00:30:44.132Z,101177.34
2023-02-21T00:33:29.537Z,101168.56
2023-02-21T00:36:15.082Z,101173.56
2023-02-21T00:39:00.466Z,101175.69
2023-02-21T00:41:46.405Z,101176.44
2023-02-21T00:44:32.506Z,101166.47
2023-02-21T00:47:18.375Z,101140.56
2023-02-21T00:50:03.957Z,101158.53
2023-02-21T00:52:49.518Z,101154.00
2023-02-21T00:55:35.072Z,101150.25
2023-02-21T00:58:20.460Z,101134.72
2023-02-21T01:01:06.173Z,101157.16
2023-02-21T01:03:51.854Z,101136.50
2023-02-21T01:06:38.928Z,101140.94
2023-02-21T01:09:24.694Z,101147.91
2023-02-21T01:12:11.271Z,101152.34
2023-02-21T01:14:57.211Z,101148.56
2023-02-21T01:17:45.022Z,101152.16
2023-02-21T01:20:31.043Z,101161.25
2023-02-21T01:23:16.431Z,101160.09
2023-02-21T01:26:01.838Z,101166.31
2023-02-21T01:28:47.804Z,101170.66
2023-02-21T01:31:38.305Z,101162.91
2023-02-21T01:34:30.201Z,101161.81
2023-02-21T01:37:15.932Z,101145.88
2023-02-21T01:40:01.670Z,101168.16
2023-02-21T01:42:47.632Z,101153.47
2023-02-21T01:45:42.118Z,101159.50
2023-02-21T01:48:33.026Z,101170.53
2023-02-21T01:51:20.323Z,101165.38
2023-02-21T01:54:07.231Z,101160.66
2023-02-21T01:56:53.801Z,101161.72
2023-02-21T01:59:41.371Z,101165.16
2023-02-21T02:02:48.900Z,101167.88
2023-02-21T02:05:36.459Z,101163.84
2023-02-21T02:08:22.485Z,101155.38
2023-02-21T02:11:23.755Z,101164.41
2023-02-21T02:14:17.205Z,101169.59
2023-02-21T02:17:10.705Z,101161.81
2023-02-21T02:20:17.977Z,101167.66
2023-02-21T02:23:48.267Z,101173.91
2023-02-21T02:27:07.906Z,101164.41
2023-02-21T02:30:19.826Z,101177.66
2023-02-21T02:33:58.678Z,101180.34
2023-02-21T02:36:41.060Z,101176.09
2023-02-21T02:39:52.293Z,101184.28
2023-02-21T02:42:37.834Z,101194.06
2023-02-21T02:45:26.687Z,101203.00
2023-02-21T02:48:02.400Z,101196.88
2023-02-21T02:50:30.065Z,101202.25
2023-02-21T02:53:03.176Z,101198.84
2023-02-21T02:55:43.276Z,101198.66
2023-02-21T02:58:12.628Z,101156.88
2023-02-21T03:00:45.900Z,101202.50
2023-02-21T03:04:08.816Z,101206.34
2023-02-21T03:06:55.554Z,101211.75
2023-02-21T03:10:00.020Z,101210.56
2023-02-21T03:13:02.111Z,101214.19
2023-02-21T03:15:37.055Z,101198.38
2023-02-21T03:18:31.508Z,101207.03
2023-02-21T03:21:04.782Z,101199.44
2023-02-21T03:23:34.930Z,101205.59
2023-02-21T03:26:06.922Z,101195.78
2023-02-21T03:28:36.133Z,101203.47
2023-02-21T03:31:07.851Z,101191.88
2023-02-21T03:33:36.002Z,101196.94
2023-02-21T03:36:08.839Z,101186.88
2023-02-21T03:38:36.521Z,101192.47
2023-02-21T03:41:03.586Z,101191.50
2023-02-21T03:43:31.011Z,101193.13
2023-02-21T03:46:01.890Z,101196.75
2023-02-21T03:48:32.322Z,101194.56
2023-02-21T03:51:12.959Z,101200.81
2023-02-21T03:53:40.218Z,101196.59
2023-02-21T03:56:09.079Z,101202.53
2023-02-21T03:58:51.132Z,101199.28
2023-02-21T04:01:18.395Z,101207.03
2023-02-21T04:03:45.512Z,101193.81
2023-02-21T04:06:13.774Z,101202.38
2023-02-21T04:08:40.950Z,101198.59
2023-02-21T04:11:08.200Z,101186.66
2023-02-21T04:13:36.606Z,101192.97
2023-02-21T04:16:04.216Z,101192.00
2023-02-21T04:18:34.527Z,101203.59
2023-02-21T04:21:02.545Z,101200.16
2023-02-21T04:23:29.741Z,101202.09
2023-02-21T04:25:56.694Z,101205.22
2023-02-21T04:28:30.610Z,101190.41
2023-02-21T04:30:57.560Z,101198.34
2023-02-21T04:33:24.666Z,101205.34
2023-02-21T04:35:51.708Z,101201.03
2023-02-21T04:38:32.062Z,101200.16
2023-02-21T04:40:59.021Z,101212.91
2023-02-21T04:43:26.216Z,101196.72
2023-02-21T04:45:53.283Z,101194.88
2023-02-21T04:48:20.656Z,101187.13
2023-02-21T04:50:47.605Z,101189.69
2023-02-21T04:53:14.768Z,101189.63
2023-02-21T04:55:41.890Z,101184.25
2023-02-21T04:58:08.839Z,101182.53
2023-02-21T05:00:35.827Z,101178.94
2023-02-21T05:03:02.728Z,101186.16
2023-02-21T05:05:29.692Z,101185.22
2023-02-21T05:07:56.612Z,101178.78
2023-02-21T05:10:27.020Z,101187.78
2023-02-21T05:12:58.079Z,101176.97
2023-02-21T05:15:25.002Z,101181.34
2023-02-21T05:17:51.907Z,101182.41
2023-02-21T05:20:19.194Z,101169.19
2023-02-21T05:22:48.495Z,101179.72
2023-02-21T05:25:24.777Z,101174.34
2023-02-21T05:27:54.235Z,101178.94
2023-02-21T05:30:24.045Z,101182.34
2023-02-21T05:32:51.312Z,101178.22
2023-02-21T05:35:18.536Z,101171.19
2023-02-21T05:37:45.560Z,101161.13
2023-02-21T05:40:12.776Z,101167.91
2023-02-21T05:42:39.683Z,101165.53
2023-02-21T05:45:06.899Z,101177.91
2023-02-21T05:47:34.950Z,101173.78
2023-02-21T05:50:02.098Z,101171.78
2023-02-21T05:52:29.942Z,101171.97
2023-02-21T05:54:56.933Z,101182.13
2023-02-21T05:57:23.898Z,101176.19
2023-02-21T05:59:50.805Z,101174.34
2023-02-21T06:02:18.011Z,101163.81
2023-02-21T06:04:45.053Z,101168.13
2023-02-21T06:07:11.928Z,101165.22
2023-02-21T06:09:38.815Z,101171.25
2023-02-21T06:12:05.960Z,101170.41
2023-02-21T06:14:32.856Z,101181.63
2023-02-21T06:17:01.344Z,101173.66
2023-02-21T06:19:28.428Z,101175.59
2023-02-21T06:21:55.359Z,101175.50
2023-02-21T06:24:22.269Z,101175.38
2023-02-21T06:26:49.213Z,101168.38
2023-02-21T06:29:16.169Z,101183.38
2023-02-21T06:31:43.154Z,101178.00
2023-02-21T06:34:11.773Z,101186.59
2023-02-21T06:36:39.646Z,101181.34
2023-02-21T06:39:08.107Z,101178.53
2023-02-21T06:41:35.068Z,101185.66
2023-02-21T06:44:02.061Z,101181.72
2023-02-21T06:46:30.821Z,101194.94
2023-02-21T06:48:58.531Z,101192.34
2023-02-21T06:51:29.533Z,101175.56
2023-02-21T06:53:58.225Z,101181.72
2023-02-21T06:56:25.161Z,101189.78
2023-02-21T06:58:52.116Z,101182.84
2023-02-21T07:01:19.786Z,101202.91
2023-02-21T07:03:47.669Z,101173.16
2023-02-21T07:06:14.867Z,101200.97
2023-02-21T07:08:41.909Z,101208.06
2023-02-21T07:11:09.653Z,101195.50
2023-02-21T07:13:37.295Z,101212.59
2023-02-21T07:16:05.324Z,101218.53
2023-02-21T07:18:32.801Z,101209.13
2023-02-21T07:21:00.020Z,101222.03
2023-02-21T07:23:26.892Z,101216.25
2023-02-21T07:25:53.850Z,101210.09
2023-02-21T07:28:20.792Z,101224.00
2023-02-21T07:30:48.036Z,101218.09
2023-02-21T07:33:15.108Z,101221.50
2023-02-21T07:35:42.151Z,101215.47
2023-02-21T07:38:09.001Z,101233.44
2023-02-21T07:40:35.915Z,101226.22
2023-02-21T07:43:02.805Z,101230.75
2023-02-21T07:45:29.739Z,101230.34
2023-02-21T07:47:56.772Z,101234.88
2023-02-21T07:50:23.821Z,101235.16
2023-02-21T07:52:50.915Z,101227.75
2023-02-21T07:55:18.060Z,101228.50
2023-02-21T07:57:46.092Z,101226.69
2023-02-21T08:00:14.212Z,101235.28
2023-02-21T08:02:41.214Z,101233.53
2023-02-21T08:05:09.850Z,101242.03
2023-02-21T08:07:37.041Z,101234.19
2023-02-21T08:10:04.909Z,101235.94
2023-02-21T08:12:31.862Z,101237.84
2023-02-21T08:14:58.855Z,101234.28
2023-02-21T08:17:26.672Z,101249.94
2023-02-21T08:19:53.626Z,101257.31
2023-02-21T08:22:20.642Z,101250.41
2023-02-21T08:24:50.409Z,101262.03
2023-02-21T08:27:18.969Z,101257.31
2023-02-21T08:29:50.185Z,101252.91
2023-02-21T08:32:17.754Z,101253.69
2023-02-21T08:34:49.560Z,101262.81
2023-02-21T08:37:20.221Z,101266.34
2023-02-21T08:39:48.931Z,101272.69
2023-02-21T08:42:16.444Z,101263.47
2023-02-21T08:44:45.114Z,101272.97
2023-02-21T08:47:13.319Z,101272.41
2023-02-21T08:49:42.447Z,101268.75
2023-02-21T08:52:09.854Z,101259.91
2023-02-21T08:54:37.541Z,101267.00
2023-02-21T08:57:04.430Z,101278.84
2023-02-21T08:59:33.623Z,101276.81
2023-02-21T09:02:01.575Z,101279.03
2023-02-21T09:04:28.531Z,101279.69
2023-02-21T09:06:56.271Z,101290.16
2023-02-21T09:09:23.477Z,101279.78
2023-02-21T09:11:50.354Z,101271.25
2023-02-21T09:14:17.412Z,101284.28
2023-02-21T09:16:47.666Z,101277.94
2023-02-21T09:19:15.157Z,101291.09
2023-02-21T09:21:47.095Z,101284.09
2023-02-21T09:24:14.083Z,101286.88
2023-02-21T09:26:41.023Z,101284.94
2023-02-21T09:29:08.050Z,101292.72
2023-02-21T09:31:36.024Z,101280.53
2023-02-21T09:34:02.965Z,101286.03
2023-02-21T09:36:29.883Z,101290.16
2023-02-21T09:38:59.018Z,101282.00
2023-02-21T09:41:26.152Z,101285.53
2023-02-21T09:43:54.845Z,101284.47
2023-02-21T09:46:34.737Z,101291.28
2023-02-21T09:49:03.939Z,101281.78
2023-02-21T09:51:32.817Z,101294.94
2023-02-21T09:54:01.622Z,101295.81
2023-02-21T09:56:36.531Z,101289.66
2023-02-21T09:59:04.023Z,101306.28
2023-02-21T10:02:14.029Z,101306.94
2023-02-21T10:04:59.146Z,101297.69
2023-02-21T10:07:51.214Z,101295.31
2023-02-21T10:10:56.482Z,101297.50
2023-02-21T10:13:44.699Z,101286.56
2023-02-21T10:16:38.538Z,101293.19
2023-02-21T10:19:22.883Z,101292.97
2023-02-21T10:21:50.888Z,101289.84
2023-02-21T10:24:25.392Z,101275.81
2023-02-21T10:27:05.514Z,101298.66
2023-02-21T10:30:10.760Z,101304.41
2023-02-21T10:32:38.775Z,101294.03
2023-02-21T10:35:06.143Z,101300.75
2023-02-21T10:37:56.688Z,101314.00
2023-02-21T10:40:44.631Z,101305.47
2023-02-21T10:43:39.518Z,101320.91
2023-02-21T10:46:34.412Z,101316.19
2023-02-21T10:49:29.100Z,101310.13
2023-02-21T10:52:18.465Z,101310.44
2023-02-21T10:55:31.236Z,101315.09
2023-02-21T10:58:07.054Z,101321.66
2023-02-21T11:00:48.293Z,101311.69
2023-02-21T11:03:18.357Z,101317.59
2023-02-21T11:05:53.661Z,101309.47
2023-02-21T11:08:43.448Z,101310.84
2023-02-21T11:11:11.263Z,101313.34
2023-02-21T11:13:38.291Z,101311.63
2023-02-21T11:16:24.665Z,101310.25
2023-02-21T11:19:07.988Z,101320.63
2023-02-21T11:21:35.071Z,101304.66
2023-02-21T11:24:05.751Z,101294.09
2023-02-21T11:26:52.389Z,101305.75
2023-02-21T11:29:25.695Z,101305.94
2023-02-21T11:31:54.331Z,101305.63
2023-02-21T11:34:21.708Z,101291.56
2023-02-21T11:36:52.687Z,101291.75
2023-02-21T11:39:27.806Z,101290.47
2023-02-21T11:41:57.785Z,101292.97
2023-02-21T11:44:39.421Z,101290.28
2023-02-21T11:47:23.863Z,101296.31
2023-02-21T11:50:22.314Z,101295.88
2023-02-21T11:53:06.528Z,101293.28
2023-02-21T11:55:35.074Z,101292.84
2023-02-21T11:58:26.193Z,101292.31
2023-02-21T12:01:07.427Z,101296.94
2023-02-21T12:03:56.025Z,101299.97
2023-02-21T12:06:44.561Z,101294.47
2023-02-21T12:09:23.262Z,101287.06
2023-02-21T12:12:06.371Z,101298.47
2023-02-21T12:14:51.969Z,101289.66
2023-02-21T12:17:47.485Z,101283.22
2023-02-21T12:21:02.182Z,101275.97
2023-02-21T12:23:53.925Z,101272.63
2023-02-21T12:26:29.057Z,101276.28
2023-02-21T12:29:26.563Z,101273.41
2023-02-21T12:32:31.793Z,101281.16
2023-02-21T12:35:42.856Z,101261.66
2023-02-21T12:38:40.742Z,101260.69
2023-02-21T12:42:01.102Z,101273.41
2023-02-21T12:45:04.854Z,101266.97
2023-02-21T12:48:00.025Z,101275.91
2023-02-21T12:50:37.014Z,101263.50
2023-02-21T12:53:17.950Z,101264.47
2023-02-21T12:56:14.535Z,101253.03
2023-02-21T12:59:12.366Z,101261.13
2023-02-21T13:01:49.676Z,101260.59
2023-02-21T13:05:14.399Z,101266.50
2023-02-21T13:08:00.357Z,101255.72
2023-02-21T13:10:39.443Z,101265.84
2023-02-21T13:13:18.304Z,101259.81
2023-02-21T13:15:47.708Z,101254.25
2023-02-21T13:18:14.642Z,101266.94
2023-02-21T13:21:20.604Z,101252.72
2023-02-21T13:23:53.312Z,101262.13
2023-02-21T13:27:05.555Z,101267.81
2023-02-21T13:29:39.101Z,101253.13
2023-02-21T13:32:21.644Z,101252.34
2023-02-21T13:35:02.013Z,101246.97
2023-02-21T13:37:32.610Z,101231.81
2023-02-21T13:40:26.277Z,101248.25
2023-02-21T13:43:09.924Z,101231.41
2023-02-21T13:45:37.056Z,101241.00
2023-02-21T13:48:06.962Z,101237.03
2023-02-21T13:50:40.644Z,101250.03
2023-02-21T13:53:35.577Z,101235.63
2023-02-21T13:56:08.777Z,101237.47
2023-02-21T13:58:47.242Z,101227.00
2023-02-21T14:01:29.663Z,101238.91
2023-02-21T14:03:57.639Z,101224.56
2023-02-21T14:06:38.500Z,101239.44
2023-02-21T14:09:15.830Z,101233.06
2023-02-21T14:11:50.473Z,101231.03
2023-02-21T14:14:32.744Z,101218.56
2023-02-21T14:17:07.748Z,101227.41
2023-02-21T14:19:47.631Z,101240.78
2023-02-21T14:22:30.798Z,101230.91
2023-02-21T14:25:09.725Z,101229.38
2023-02-21T14:27:40.407Z,101235.69
2023-02-21T14:30:12.740Z,101241.94
2023-02-21T14:32:55.540Z,101222.09
2023-02-21T14:35:44.492Z,101226.75
2023-02-21T14:38:39.148Z,101238.09
2023-02-21T14:41:31.614Z,101237.97
2023-02-21T14:44:22.485Z,101232.13
2023-02-21T14:47:00.359Z,101229.25
2023-02-21T14:50:19.493Z,101237.88
2023-02-21T14:53:33.340Z,101240.78
2023-02-21T14:56:42.939Z,101237.81
2023-02-21T14:59:15.918Z,101240.00
2023-02-21T15:02:32.637Z,101240.00
2023-02-21T15:05:26.709Z,101219.94
2023-02-21T15:08:03.210Z,101244.63
2023-02-21T15:10:33.395Z,101233.00
2023-02-21T15:13:03.423Z,101236.44
2023-02-21T15:15:36.117Z,101231.34
2023-02-21T15:18:24.284Z,101232.00
2023-02-21T15:21:12.416Z,101241.06
2023-02-21T15:23:44.692Z,101235.13
2023-02-21T15:26:29.963Z,101226.84
2023-02-21T15:29:13.613Z,101236.72
2023-02-21T15:31:50.373Z,101233.50
2023-02-21T15:34:33.166Z,101223.81
2023-02-21T15:37:32.791Z,101223.41
2023-02-21T15:40:11.847Z,101225.25
2023-02-21T15:42:41.316Z,101230.63
2023-02-21T15:45:17.703Z,101220.25
2023-02-21T15:47:46.844Z,101220.47
2023-02-21T15:50:36.062Z,101225.44
2023-02-21T15:53:19.213Z,101231.66
2023-02-21T15:55:47.915Z,101231.09
2023-02-21T15:58:23.872Z,101217.13
2023-02-21T16:01:11.325Z,101225.63
2023-02-21T16:03:46.967Z,101232.66
2023-02-21T16:06:28.841Z,101221.53
2023-02-21T16:09:17.053Z,101225.84
2023-02-21T16:11:55.551Z,101239.56
2023-02-21T16:15:00.786Z,101231.88
2023-02-21T16:17:34.543Z,101231.31
2023-02-21T16:20:25.383Z,101232.38
2023-02-21T16:23:24.674Z,101228.25
2023-02-21T16:26:14.499Z,101234.56
2023-02-21T16:28:42.909Z,101232.41
2023-02-21T16:31:31.668Z,101241.19
2023-02-21T16:33:58.977Z,101239.78
2023-02-21T16:36:30.737Z,101234.59
2023-02-21T16:38:59.032Z,101241.13
2023-02-21T16:41:26.560Z,101242.97
2023-02-21T16:43:53.622Z,101240.56
2023-02-21T16:46:29.667Z,101242.41
2023-02-21T16:48:57.266Z,101249.56
2023-02-21T16:51:24.176Z,101245.94
2023-02-21T16:53:51.130Z,101239.72
2023-02-21T16:56:18.265Z,101257.63
2023-02-21T16:58:50.618Z,101255.91
2023-02-21T17:01:25.554Z,101261.38
2023-02-21T17:03:53.948Z,101252.19
2023-02-21T17:06:24.455Z,101256.50
2023-02-21T17:08:51.893Z,101268.19
2023-02-21T17:11:18.894Z,101263.00
2023-02-21T17:13:45.973Z,101256.84
2023-02-21T17:16:13.089Z,101255.72
2023-02-21T17:18:40.085Z,101265.13
2023-02-21T17:21:07.004Z,101264.25
2023-02-21T17:23:33.930Z,101262.22
2023-02-21T17:26:00.849Z,101258.19
2023-02-21T17:28:27.781Z,101273.19
2023-02-21T17:30:54.710Z,101258.97
2023-02-21T17:33:22.405Z,101273.97
2023-02-21T17:35:49.356Z,101261.19
2023-02-21T17:38:16.255Z,101262.63
2023-02-21T17:40:45.552Z,101256.69
2023-02-21T17:43:12.606Z,101266.75
2023-02-21T17:45:39.717Z,101246.69
2023-02-21T17:48:06.817Z,101259.56
2023-02-21T17:50:33.714Z,101268.94
2023-02-21T17:53:01.725Z,101252.56
2023-02-21T17:55:30.112Z,101265.13
2023-02-21T17:57:57.598Z,101278.84
2023-02-21T18:00:28.384Z,101276.16
2023-02-21T18:02:56.256Z,101279.69
2023-02-21T18:05:23.454Z,101260.13
2023-02-21T18:07:52.804Z,101284.72
2023-02-21T18:10:24.405Z,101278.94
2023-02-21T18:12:52.633Z,101279.69
2023-02-21T18:15:23.228Z,101290.09
2023-02-21T18:17:50.583Z,101281.44
2023-02-21T18:20:18.106Z,101286.63
2023-02-21T18:22:45.460Z,101286.13
2023-02-21T18:25:16.890Z,101279.31
2023-02-21T18:27:44.307Z,101279.41
2023-02-21T18:30:11.836Z,101281.03
2023-02-21T18:32:38.845Z,101274.22
2023-02-21T18:35:06.321Z,101262.72
2023-02-21T18:37:33.202Z,101272.19
2023-02-21T18:40:00.218Z,101280.88
2023-02-21T18:42:27.428Z,101279.69
2023-02-21T18:44:56.091Z,101276.84
2023-02-21T18:47:26.319Z,101292.28
2023-02-21T18:49:56.287Z,101273.84
2023-02-21T18:52:23.474Z,101283.66
2023-02-21T18:54:50.864Z,101278.44
2023-02-21T18:57:21.529Z,101292.47
2023-02-21T18:59:50.577Z,101286.63
2023-02-21T19:02:19.767Z,101255.25
2023-02-21T19:04:50.089Z,101276.25
2023-02-21T19:07:17.436Z,101266.47
2023-02-21T19:09:50.310Z,101283.81
2023-02-21T19:12:18.018Z,101260.50
2023-02-21T19:14:45.168Z,101269.16
2023-02-21T19:17:12.784Z,101267.50
2023-02-21T19:19:39.815Z,101257.25
2023-02-21T19:22:06.976Z,101276.25
2023-02-21T19:24:34.263Z,101267.44
2023-02-21T19:27:02.120Z,101284.00
2023-02-21T19:29:29.310Z,101267.44
2023-02-21T19:31:57.128Z,101265.53
2023-02-21T19:34:24.230Z,101270.56
2023-02-21T19:36:51.220Z,101272.03
2023-02-21T19:39:18.201Z,101262.72
2023-02-21T19:41:45.382Z,101288.34
2023-02-21T19:44:12.705Z,101263.28
2023-02-21T19:46:40.150Z,101269.16
2023-02-21T19:49:17.370Z,101254.16
2023-02-21T19:51:49.607Z,101255.72
2023-02-21T19:54:20.317Z,101256.56
2023-02-21T19:56:49.898Z,101259.06
2023-02-21T19:59:18.744Z,101271.66
2023-02-21T20:01:46.032Z,101257.91
2023-02-21T20:04:13.019Z,101280.19
2023-02-21T20:06:39.936Z,101267.81
2023-02-21T20:09:09.528Z,101272.41
2023-02-21T20:11:40.097Z,101251.50
2023-02-21T20:14:11.974Z,101267.03
2023-02-21T20:16:41.440Z,101238.06
2023-02-21T20:19:09.069Z,101263.38
2023-02-21T20:21:36.672Z,101266.94
2023-02-21T20:24:04.101Z,101253.59
2023-02-21T20:26:31.130Z,101255.81
2023-02-21T20:28:58.117Z,101246.50
2023-02-21T20:31:32.507Z,101256.19
2023-02-21T20:34:03.518Z,101254.97
2023-02-21T20:36:37.610Z,101267.31
2023-02-21T20:39:07.290Z,101239.50
2023-02-21T20:41:40.211Z,101253.44
2023-02-21T20:44:07.294Z,101249.78
2023-02-21T20:46:35.050Z,101240.00
2023-02-21T20:49:03.334Z,101259.56
2023-02-21T20:51:37.981Z,101257.31
2023-02-21T20:54:05.095Z,101256.38
2023-02-21T20:56:39.449Z,101253.41
2023-02-21T20:59:11.849Z,101253.91
2023-02-21T21:01:39.472Z,101236.91
2023-02-21T21:04:08.094Z,101257.53
2023-02-21T21:06:36.702Z,101227.31
2023-02-21T21:09:03.987Z,101252.25
2023-02-21T21:11:31.808Z,101238.34
2023-02-21T21:13:58.838Z,101230.59
2023-02-21T21:16:25.775Z,101240.81
2023-02-21T21:18:52.773Z,101242.09
2023-02-21T21:21:20.779Z,101248.16
2023-02-21T21:23:48.594Z,101240.16
2023-02-21T21:26:16.736Z,101239.41
2023-02-21T21:28:44.064Z,101218.50
2023-02-21T21:31:11.260Z,101227.91
2023-02-21T21:33:38.483Z,101229.63
2023-02-21T21:36:08.999Z,101248.03
2023-02-21T21:38:40.580Z,101229.03
2023-02-21T21:41:15.794Z,101225.78
2023-02-21T21:43:45.040Z,101236.13
2023-02-21T21:46:13.767Z,101223.38
2023-02-21T21:48:44.884Z,101222.63
2023-02-21T21:51:14.385Z,101222.03
2023-02-21T21:53:41.692Z,101217.72
2023-02-21T21:56:11.203Z,101224.84
2023-02-21T21:58:38.282Z,101216.78
2023-02-21T22:01:05.495Z,101215.16
2023-02-21T22:03:32.967Z,101221.09
2023-02-21T22:06:00.530Z,101206.44
2023-02-21T22:08:28.936Z,101211.03
2023-02-21T22:10:56.284Z,101202.09
2023-02-21T22:13:23.258Z,101194.03
2023-02-21T22:15:50.298Z,101181.09
2023-02-21T22:18:19.999Z,101180.50
2023-02-21T22:20:50.015Z,101191.34
2023-02-21T22:23:21.335Z,101207.00
2023-02-21T22:25:48.499Z,101207.00
2023-02-21T22:28:16.459Z,101207.97
2023-02-21T22:30:43.511Z,101166.03
2023-02-21T22:33:14.135Z,101191.94
2023-02-21T22:35:41.595Z,101189.16
2023-02-21T22:38:14.245Z,101198.28
2023-02-21T22:40:42.285Z,101198.63
2023-02-21T22:43:13.164Z,101199.22
2023-02-21T22:45:40.244Z,101199.13
2023-02-21T22:48:09.900Z,101192.81
2023-02-21T22:50:37.623Z,101189.56
2023-02-21T22:53:09.042Z,101202.59
2023-02-21T22:55:37.379Z,101184.38
2023-02-21T22:58:09.235Z,101183.88
2023-02-21T23:00:37.786Z,101166.91
2023-02-21T23:03:13.131Z,101168.72
2023-02-21T23:05:43.811Z,101180.44
2023-02-21T23:08:13.371Z,101182.25
2023-02-21T23:10:41.064Z,101173.13
2023-02-21T23:13:16.535Z,101163.06
2023-02-21T23:15:46.984Z,101155.00
2023-02-21T23:18:20.579Z,101167.19
2023-02-21T23:20:56.875Z,101151.97
2023-02-21T23:23:27.836Z,101160.31
2023-02-21T23:26:01.127Z,101144.78
2023-02-21T23:28:30.538Z,101148.56
2023-02-21T23:30:58.202Z,101141.97
2023-02-21T23:33:29.115Z,101157.03
2023-02-21T23:35:57.662Z,101129.31
2023-02-21T23:38:28.016Z,101138.75
2023-02-21T23:40:58.656Z,101153.56
2023-02-21T23:43:29.368Z,101142.66
2023-02-21T23:46:02.864Z,101150.22
2023-02-21T23:48:29.874Z,101126.19
2023-02-21T23:50:57.983Z,101138.63
2023-02-21T23:53:28.801Z,101118.28
2023-02-21T23:55:57.622Z,101125.03
2023-02-21T23:58:33.477Z,101130.00
